sensor_id;sensor_type;location;lat;lon;timestamp;pressure;altitude;pressure_sealevel;temperature;humidity
27705;BME280;15109;50.992;6.918;2023-02-14T00:00:47;102928.22;;;5.88;100.00
27705;BME280;15109;50.992;6.918;2023-02-14T00:04:08;102923.59;;;5.90;100.00
27705;BME280;15109;50.992;6.918;2023-02-14T00:07:29;102930.19;;;5.86;100.00
27705;BME280;15109;50.992;6.918;2023-02-14T00:10:50;102936.56;;;5.85;100.00
27705;BME280;15109;50.992;6.918;2023-02-14T00:14:11;102931.13;;;5.85;100.00
27705;BME280;15109;50.992;6.918;2023-02-14T00:17:51;102933.84;;;5.85;100.00
27705;BME280;15109;50.992;6.918;2023-02-14T00:21:12;102939.50;;;5.82;100.00
27705;BME280;15109;50.992;6.918;2023-02-14T00:24:33;102934.16;;;5.81;100.00
27705;BME280;15109;50.992;6.918;2023-02-14T00:27:54;102922.63;;;5.77;100.00
27705;BME280;15109;50.992;6.918;2023-02-14T00:31:15;102924.34;;;5.78;100.00
27705;BME280;15109;50.992;6.918;2023-02-14T00:34:39;102926.88;;;5.81;100.00
27705;BME280;15109;50.992;6.918;2023-02-14T00:38:00;102919.34;;;5.86;100.00
27705;BME280;15109;50.992;6.918;2023-02-14T00:41:23;102917.56;;;5.85;100.00
27705;BME280;15109;50.992;6.918;2023-02-14T00:44:44;102912.03;;;5.87;100.00
27705;BME280;15109;50.992;6.918;2023-02-14T00:48:07;102911.25;;;5.85;100.00
27705;BME280;15109;50.992;6.918;2023-02-14T00:51:28;102899.63;;;5.83;100.00
27705;BME280;15109;50.992;6.918;2023-02-14T00:54:49;102910.78;;;5.78;100.00
27705;BME280;15109;50.992;6.918;2023-02-14T00:58:11;102913.78;;;5.74;100.00
27705;BME280;15109;50.992;6.918;2023-02-14T01:01:32;102903.81;;;5.74;100.00
27705;BME280;15109;50.992;6.918;2023-02-14T01:04:53;102898.88;;;5.81;100.00
27705;BME280;15109;50.992;6.918;2023-02-14T01:08:19;102894.63;;;5.77;100.00
27705;BME280;15109;50.992;6.918;2023-02-14T01:11:42;102907.41;;;5.75;100.00
27705;BME280;15109;50.992;6.918;2023-02-14T01:15:03;102900.56;;;5.69;100.00
27705;BME280;15109;50.992;6.918;2023-02-14T01:18:24;102895.19;;;5.82;100.00
27705;BME280;15109;50.992;6.918;2023-02-14T01:21:48;102898.78;;;5.82;100.00
27705;BME280;15109;50.992;6.918;2023-02-14T01:25:08;102895.84;;;5.85;100.00
27705;BME280;15109;50.992;6.918;2023-02-14T01:28:29;102890.00;;;5.91;100.00
27705;BME280;15109;50.992;6.918;2023-02-14T01:31:51;102889.47;;;5.86;100.00
27705;BME280;15109;50.992;6.918;2023-02-14T01:35:15;102901.88;;;5.76;100.00
27705;BME280;15109;50.992;6.918;2023-02-14T01:38:38;102910.25;;;5.73;100.00
27705;BME280;15109;50.992;6.918;2023-02-14T01:42:02;102902.94;;;5.74;100.00
27705;BME280;15109;50.992;6.918;2023-02-14T01:45:25;102904.63;;;5.62;100.00
27705;BME280;15109;50.992;6.918;2023-02-14T01:48:46;102901.47;;;5.56;100.00
27705;BME280;15109;50.992;6.918;2023-02-14T01:52:09;102891.66;;;5.53;100.00
27705;BME280;15109;50.992;6.918;2023-02-14T01:55:32;102903.13;;;5.44;100.00
27705;BME280;15109;50.992;6.918;2023-02-14T01:58:55;102909.91;;;5.51;100.00
27705;BME280;15109;50.992;6.918;2023-02-14T02:02:17;102908.16;;;5.50;100.00
27705;BME280;15109;50.992;6.918;2023-02-14T02:05:44;102901.50;;;5.41;100.00
27705;BME280;15109;50.992;6.918;2023-02-14T02:09:12;102892.69;;;5.38;100.00
27705;BME280;15109;50.992;6.918;2023-02-14T02:12:35;102896.09;;;5.27;100.00
27705;BME280;15109;50.992;6.918;2023-02-14T02:30:32;102885.84;;;5.04;100.00
27705;BME280;15109;50.992;6.918;2023-02-14T02:38:05;102874.81;;;5.21;100.00
27705;BME280;15109;50.992;6.918;2023-02-14T02:49:26;102874.31;;;5.00;100.00
27705;BME280;15109;50.992;6.918;2023-02-14T02:56:49;102873.25;;;4.89;100.00
27705;BME280;15109;50.992;6.918;2023-02-14T03:00:14;102890.59;;;4.86;100.00
27705;BME280;15109;50.992;6.918;2023-02-14T03:03:38;102873.69;;;4.83;100.00
27705;BME280;15109;50.992;6.918;2023-02-14T03:07:20;102884.50;;;4.83;100.00
27705;BME280;15109;50.992;6.918;2023-02-14T03:10:55;102881.88;;;4.81;100.00
27705;BME280;15109;50.992;6.918;2023-02-14T03:14:19;102882.09;;;4.78;100.00
27705;BME280;15109;50.992;6.918;2023-02-14T03:21:31;102884.31;;;4.72;100.00
27705;BME280;15109;50.992;6.918;2023-02-14T03:25:10;102886.69;;;4.62;100.00
27705;BME280;15109;50.992;6.918;2023-02-14T03:28:42;102890.50;;;4.60;100.00
27705;BME280;15109;50.992;6.918;2023-02-14T03:35:51;102887.38;;;4.51;100.00
27705;BME280;15109;50.992;6.918;2023-02-14T03:42:56;102889.03;;;4.54;100.00
27705;BME280;15109;50.992;6.918;2023-02-14T03:46:24;102894.91;;;4.46;100.00
27705;BME280;15109;50.992;6.918;2023-02-14T03:49:49;102889.69;;;4.43;100.00
27705;BME280;15109;50.992;6.918;2023-02-14T03:53:10;102878.94;;;4.42;100.00
27705;BME280;15109;50.992;6.918;2023-02-14T03:56:48;102880.19;;;4.36;100.00
27705;BME280;15109;50.992;6.918;2023-02-14T04:00:11;102878.53;;;4.34;100.00
27705;BME280;15109;50.992;6.918;2023-02-14T04:03:35;102886.00;;;4.30;100.00
27705;BME280;15109;50.992;6.918;2023-02-14T04:06:58;102880.75;;;4.27;100.00
27705;BME280;15109;50.992;6.918;2023-02-14T04:10:21;102888.19;;;4.24;100.00
27705;BME280;15109;50.992;6.918;2023-02-14T04:13:43;102884.88;;;4.19;100.00
27705;BME280;15109;50.992;6.918;2023-02-14T04:17:04;102890.59;;;4.14;100.00
27705;BME280;15109;50.992;6.918;2023-02-14T04:20:44;102882.56;;;4.13;100.00
27705;BME280;15109;50.992;6.918;2023-02-14T04:24:05;102880.44;;;4.18;100.00
27705;BME280;15109;50.992;6.918;2023-02-14T04:27:25;102878.91;;;4.14;100.00
27705;BME280;15109;50.992;6.918;2023-02-14T04:30:46;102874.72;;;4.08;100.00
27705;BME280;15109;50.992;6.918;2023-02-14T04:34:07;102882.16;;;4.04;100.00
27705;BME280;15109;50.992;6.918;2023-02-14T04:37:28;102879.13;;;3.95;100.00
27705;BME280;15109;50.992;6.918;2023-02-14T04:40:50;102877.56;;;3.91;100.00
27705;BME280;15109;50.992;6.918;2023-02-14T04:44:12;102876.50;;;3.93;100.00
27705;BME280;15109;50.992;6.918;2023-02-14T04:47:33;102869.63;;;3.88;100.00
27705;BME280;15109;50.992;6.918;2023-02-14T04:50:55;102864.50;;;3.83;100.00
27705;BME280;15109;50.992;6.918;2023-02-14T04:54:16;102863.97;;;3.77;100.00
27705;BME280;15109;50.992;6.918;2023-02-14T04:57:37;102865.72;;;3.78;100.00
27705;BME280;15109;50.992;6.918;2023-02-14T05:00:57;102859.44;;;3.77;100.00
27705;BME280;15109;50.992;6.918;2023-02-14T05:04:18;102855.16;;;3.73;100.00
27705;BME280;15109;50.992;6.918;2023-02-14T05:07:39;102854.69;;;3.81;100.00
27705;BME280;15109;50.992;6.918;2023-02-14T05:11:02;102858.47;;;3.78;100.00
27705;BME280;15109;50.992;6.918;2023-02-14T05:14:24;102856.03;;;3.74;100.00
27705;BME280;15109;50.992;6.918;2023-02-14T05:17:44;102859.00;;;3.69;100.00
27705;BME280;15109;50.992;6.918;2023-02-14T05:21:06;102854.97;;;3.76;100.00
27705;BME280;15109;50.992;6.918;2023-02-14T05:24:28;102849.41;;;3.79;100.00
27705;BME280;15109;50.992;6.918;2023-02-14T05:27:50;102838.38;;;3.82;100.00
27705;BME280;15109;50.992;6.918;2023-02-14T05:31:11;102833.44;;;3.75;100.00
27705;BME280;15109;50.992;6.918;2023-02-14T05:34:32;102834.59;;;3.71;100.00
27705;BME280;15109;50.992;6.918;2023-02-14T05:37:53;102834.75;;;3.67;100.00
27705;BME280;15109;50.992;6.918;2023-02-14T05:41:13;102836.00;;;3.62;100.00
27705;BME280;15109;50.992;6.918;2023-02-14T05:44:34;102830.75;;;3.59;100.00
27705;BME280;15109;50.992;6.918;2023-02-14T05:47:55;102833.03;;;3.67;100.00
27705;BME280;15109;50.992;6.918;2023-02-14T05:51:16;102838.94;;;3.73;100.00
27705;BME280;15109;50.992;6.918;2023-02-14T05:54:37;102830.22;;;3.68;100.00
27705;BME280;15109;50.992;6.918;2023-02-14T05:57:58;102840.41;;;3.63;100.00
27705;BME280;15109;50.992;6.918;2023-02-14T06:01:18;102829.97;;;3.57;100.00
27705;BME280;15109;50.992;6.918;2023-02-14T06:04:40;102837.97;;;3.58;100.00
27705;BME280;15109;50.992;6.918;2023-02-14T06:08:00;102841.69;;;3.57;100.00
27705;BME280;15109;50.992;6.918;2023-02-14T06:11:24;102850.81;;;3.55;100.00
27705;BME280;15109;50.992;6.918;2023-02-14T06:14:45;102845.94;;;3.61;100.00
27705;BME280;15109;50.992;6.918;2023-02-14T06:18:06;102846.97;;;3.59;100.00
27705;BME280;15109;50.992;6.918;2023-02-14T06:21:27;102847.59;;;3.64;100.00
27705;BME280;15109;50.992;6.918;2023-02-14T06:24:48;102851.66;;;3.71;100.00
27705;BME280;15109;50.992;6.918;2023-02-14T06:28:09;102850.69;;;3.72;100.00
27705;BME280;15109;50.992;6.918;2023-02-14T06:31:31;102859.09;;;3.67;100.00
27705;BME280;15109;50.992;6.918;2023-02-14T06:34:52;102855.88;;;3.61;100.00
27705;BME280;15109;50.992;6.918;2023-02-14T06:38:13;102859.53;;;3.60;100.00
27705;BME280;15109;50.992;6.918;2023-02-14T06:41:35;102862.25;;;3.60;100.00
27705;BME280;15109;50.992;6.918;2023-02-14T06:44:55;102855.34;;;3.54;100.00
27705;BME280;15109;50.992;6.918;2023-02-14T06:48:16;102861.13;;;3.48;100.00
27705;BME280;15109;50.992;6.918;2023-02-14T06:51:38;102863.91;;;3.47;100.00
27705;BME280;15109;50.992;6.918;2023-02-14T06:54:59;102869.41;;;3.45;100.00
27705;BME280;15109;50.992;6.918;2023-02-14T06:58:20;102871.97;;;3.48;100.00
27705;BME280;15109;50.992;6.918;2023-02-14T07:01:42;102865.28;;;3.54;100.00
27705;BME280;15109;50.992;6.918;2023-02-14T07:05:06;102866.09;;;3.56;100.00
27705;BME280;15109;50.992;6.918;2023-02-14T07:08:29;102873.06;;;3.60;100.00
27705;BME280;15109;50.992;6.918;2023-02-14T07:11:50;102863.72;;;3.65;100.00
27705;BME280;15109;50.992;6.918;2023-02-14T07:15:11;102863.47;;;3.70;100.00
27705;BME280;15109;50.992;6.918;2023-02-14T07:18:32;102860.22;;;3.79;100.00
27705;BME280;15109;50.992;6.918;2023-02-14T07:21:53;102860.22;;;3.79;100.00
27705;BME280;15109;50.992;6.918;2023-02-14T07:25:14;102853.47;;;3.86;100.00
27705;BME280;15109;50.992;6.918;2023-02-14T07:28:36;102860.97;;;3.97;100.00
27705;BME280;15109;50.992;6.918;2023-02-14T07:31:57;102863.69;;;4.11;100.00
27705;BME280;15109;50.992;6.918;2023-02-14T07:35:18;102858.19;;;4.13;100.00
27705;BME280;15109;50.992;6.918;2023-02-14T07:38:40;102852.50;;;4.17;100.00
27705;BME280;15109;50.992;6.918;2023-02-14T07:42:01;102851.16;;;4.24;100.00
27705;BME280;15109;50.992;6.918;2023-02-14T07:45:23;102848.56;;;4.37;100.00
27705;BME280;15109;50.992;6.918;2023-02-14T07:48:44;102851.94;;;4.40;100.00
27705;BME280;15109;50.992;6.918;2023-02-14T07:52:05;102851.38;;;4.49;100.00
27705;BME280;15109;50.992;6.918;2023-02-14T07:55:26;102856.34;;;4.57;100.00
27705;BME280;15109;50.992;6.918;2023-02-14T07:58:47;102846.19;;;4.61;100.00
27705;BME280;15109;50.992;6.918;2023-02-14T08:02:09;102846.47;;;4.70;100.00
27705;BME280;15109;50.992;6.918;2023-02-14T08:05:31;102853.03;;;4.80;100.00
27705;BME280;15109;50.992;6.918;2023-02-14T08:08:52;102841.91;;;4.85;100.00
27705;BME280;15109;50.992;6.918;2023-02-14T08:12:14;102844.03;;;4.94;100.00
27705;BME280;15109;50.992;6.918;2023-02-14T08:15:54;102856.41;;;4.98;100.00
27705;BME280;15109;50.992;6.918;2023-02-14T08:19:24;102856.41;;;5.12;100.00
27705;BME280;15109;50.992;6.918;2023-02-14T08:22:45;102857.88;;;5.18;100.00
27705;BME280;15109;50.992;6.918;2023-02-14T08:26:06;102855.59;;;5.24;100.00
27705;BME280;15109;50.992;6.918;2023-02-14T08:29:27;102855.66;;;5.37;100.00
27705;BME280;15109;50.992;6.918;2023-02-14T08:32:49;102865.25;;;5.42;100.00
27705;BME280;15109;50.992;6.918;2023-02-14T08:36:12;102859.63;;;5.45;100.00
27705;BME280;15109;50.992;6.918;2023-02-14T08:39:33;102860.50;;;5.46;100.00
27705;BME280;15109;50.992;6.918;2023-02-14T08:42:55;102858.22;;;5.53;100.00
27705;BME280;15109;50.992;6.918;2023-02-14T08:46:16;102860.47;;;5.60;100.00
27705;BME280;15109;50.992;6.918;2023-02-14T08:49:37;102858.75;;;5.72;100.00
27705;BME280;15109;50.992;6.918;2023-02-14T08:52:58;102871.81;;;5.79;100.00
27705;BME280;15109;50.992;6.918;2023-02-14T08:56:19;102857.84;;;5.85;100.00
27705;BME280;15109;50.992;6.918;2023-02-14T08:59:44;102856.06;;;5.99;100.00
27705;BME280;15109;50.992;6.918;2023-02-14T09:03:06;102860.09;;;6.06;100.00
27705;BME280;15109;50.992;6.918;2023-02-14T09:06:27;102852.50;;;6.11;100.00
27705;BME280;15109;50.992;6.918;2023-02-14T09:09:48;102855.13;;;6.12;100.00
27705;BME280;15109;50.992;6.918;2023-02-14T09:13:09;102844.78;;;6.17;100.00
27705;BME280;15109;50.992;6.918;2023-02-14T09:16:30;102845.03;;;6.27;100.00
27705;BME280;15109;50.992;6.918;2023-02-14T09:19:50;102842.44;;;6.25;100.00
27705;BME280;15109;50.992;6.918;2023-02-14T09:23:11;102846.22;;;6.35;100.00
27705;BME280;15109;50.992;6.918;2023-02-14T09:26:32;102844.38;;;6.49;100.00
27705;BME280;15109;50.992;6.918;2023-02-14T09:29:56;102837.09;;;6.49;100.00
27705;BME280;15109;50.992;6.918;2023-02-14T09:33:18;102834.84;;;6.68;100.00
27705;BME280;15109;50.992;6.918;2023-02-14T09:36:39;102841.25;;;6.67;100.00
27705;BME280;15109;50.992;6.918;2023-02-14T09:40:19;102833.19;;;6.66;100.00
27705;BME280;15109;50.992;6.918;2023-02-14T09:47:04;102813.78;;;6.96;100.00
27705;BME280;15109;50.992;6.918;2023-02-14T09:50:27;102821.81;;;7.10;100.00
27705;BME280;15109;50.992;6.918;2023-02-14T09:53:50;102825.06;;;7.15;100.00
27705;BME280;15109;50.992;6.918;2023-02-14T09:57:23;102827.09;;;7.24;100.00
27705;BME280;15109;50.992;6.918;2023-02-14T10:00:48;102811.72;;;7.36;100.00
27705;BME280;15109;50.992;6.918;2023-02-14T10:04:30;102806.31;;;7.47;100.00
27705;BME280;15109;50.992;6.918;2023-02-14T10:07:55;102816.66;;;7.54;100.00
27705;BME280;15109;50.992;6.918;2023-02-14T10:11:18;102812.22;;;7.64;100.00
27705;BME280;15109;50.992;6.918;2023-02-14T10:14:41;102807.47;;;7.55;100.00
27705;BME280;15109;50.992;6.918;2023-02-14T10:18:13;102799.66;;;7.51;100.00
27705;BME280;15109;50.992;6.918;2023-02-14T10:22:38;102807.72;;;7.52;100.00
27705;BME280;15109;50.992;6.918;2023-02-14T10:25:34;102813.06;;;7.54;100.00
27705;BME280;15109;50.992;6.918;2023-02-14T10:29:01;102813.66;;;7.81;100.00
27705;BME280;15109;50.992;6.918;2023-02-14T10:32:30;102809.50;;;7.99;100.00
27705;BME280;15109;50.992;6.918;2023-02-14T10:36:07;102800.75;;;8.07;100.00
27705;BME280;15109;50.992;6.918;2023-02-14T10:49:57;102787.88;;;8.20;100.00
27705;BME280;15109;50.992;6.918;2023-02-14T10:56:45;102785.34;;;8.30;100.00
27705;BME280;15109;50.992;6.918;2023-02-14T11:00:25;102772.34;;;8.33;100.00
27705;BME280;15109;50.992;6.918;2023-02-14T11:07:14;102762.81;;;8.39;100.00
27705;BME280;15109;50.992;6.918;2023-02-14T11:10:36;102750.06;;;8.50;100.00
27705;BME280;15109;50.992;6.918;2023-02-14T11:13:58;102748.81;;;8.65;100.00
27705;BME280;15109;50.992;6.918;2023-02-14T11:17:27;102745.09;;;8.78;100.00
27705;BME280;15109;50.992;6.918;2023-02-14T11:20:58;102747.94;;;8.87;100.00
27705;BME280;15109;50.992;6.918;2023-02-14T11:28:11;102731.66;;;9.08;100.00
27705;BME280;15109;50.992;6.918;2023-02-14T11:31:37;102734.03;;;9.01;100.00
27705;BME280;15109;50.992;6.918;2023-02-14T11:35:00;102723.47;;;9.08;100.00
27705;BME280;15109;50.992;6.918;2023-02-14T11:38:28;102727.88;;;9.20;100.00
27705;BME280;15109;50.992;6.918;2023-02-14T11:41:51;102733.56;;;9.28;100.00
27705;BME280;15109;50.992;6.918;2023-02-14T11:48:58;102721.72;;;9.18;100.00
27705;BME280;15109;50.992;6.918;2023-02-14T11:52:21;102718.38;;;9.15;100.00
27705;BME280;15109;50.992;6.918;2023-02-14T11:55:50;102710.03;;;9.16;100.00
27705;BME280;15109;50.992;6.918;2023-02-14T11:59:20;102708.28;;;9.15;100.00
27705;BME280;15109;50.992;6.918;2023-02-14T12:02:46;102695.13;;;9.20;100.00
27705;BME280;15109;50.992;6.918;2023-02-14T12:06:08;102690.16;;;9.25;100.00
27705;BME280;15109;50.992;6.918;2023-02-14T12:09:29;102676.59;;;9.35;100.00
27705;BME280;15109;50.992;6.918;2023-02-14T12:13:36;102685.13;;;9.41;100.00
27705;BME280;15109;50.992;6.918;2023-02-14T12:16:40;102671.28;;;9.54;100.00
27705;BME280;15109;50.992;6.918;2023-02-14T12:20:08;102664.81;;;9.55;100.00
27705;BME280;15109;50.992;6.918;2023-02-14T12:27:24;102659.34;;;9.55;100.00
27705;BME280;15109;50.992;6.918;2023-02-14T12:30:48;102651.63;;;9.60;100.00
27705;BME280;15109;50.992;6.918;2023-02-14T12:34:11;102651.84;;;9.68;100.00
27705;BME280;15109;50.992;6.918;2023-02-14T12:37:49;102647.38;;;9.67;100.00
27705;BME280;15109;50.992;6.918;2023-02-14T12:41:19;102643.59;;;9.79;100.00
27705;BME280;15109;50.992;6.918;2023-02-14T12:44:53;102645.94;;;9.93;100.00
27705;BME280;15109;50.992;6.918;2023-02-14T12:48:21;102642.41;;;10.02;100.00
27705;BME280;15109;50.992;6.918;2023-02-14T13:02:57;102620.84;;;10.30;100.00
27705;BME280;15109;50.992;6.918;2023-02-14T13:13:24;102591.63;;;10.30;100.00
27705;BME280;15109;50.992;6.918;2023-02-14T13:16:56;102588.91;;;10.30;100.00
27705;BME280;15109;50.992;6.918;2023-02-14T13:20:33;102591.81;;;10.48;100.00
27705;BME280;15109;50.992;6.918;2023-02-14T13:24:00;102576.09;;;10.40;100.00
27705;BME280;15109;50.992;6.918;2023-02-14T13:27:27;102571.81;;;10.57;100.00
27705;BME280;15109;50.992;6.918;2023-02-14T13:30:51;102565.34;;;10.58;100.00
27705;BME280;15109;50.992;6.918;2023-02-14T13:37:50;102569.50;;;10.43;100.00
27705;BME280;15109;50.992;6.918;2023-02-14T13:41:15;102560.72;;;10.59;100.00
27705;BME280;15109;50.992;6.918;2023-02-14T13:44:44;102564.19;;;10.51;100.00
27705;BME280;15109;50.992;6.918;2023-02-14T13:48:08;102567.22;;;10.48;100.00
27705;BME280;15109;50.992;6.918;2023-02-14T13:55:05;102550.25;;;10.73;100.00
27705;BME280;15109;50.992;6.918;2023-02-14T13:58:26;102542.19;;;10.72;100.00
27705;BME280;15109;50.992;6.918;2023-02-14T14:01:53;102545.34;;;10.77;100.00
27705;BME280;15109;50.992;6.918;2023-02-14T14:08:51;102541.28;;;10.62;100.00
27705;BME280;15109;50.992;6.918;2023-02-14T14:19:53;102538.03;;;10.87;100.00
27705;BME280;15109;50.992;6.918;2023-02-14T14:23:31;102528.22;;;10.84;100.00
27705;BME280;15109;50.992;6.918;2023-02-14T14:30:18;102519.28;;;10.82;100.00
27705;BME280;15109;50.992;6.918;2023-02-14T14:33:42;102517.13;;;10.86;100.00
27705;BME280;15109;50.992;6.918;2023-02-14T14:37:13;102513.91;;;11.10;100.00
27705;BME280;15109;50.992;6.918;2023-02-14T14:40:35;102505.00;;;11.08;100.00
27705;BME280;15109;50.992;6.918;2023-02-14T14:43:58;102501.13;;;10.91;100.00
27705;BME280;15109;50.992;6.918;2023-02-14T14:47:20;102493.94;;;10.80;100.00
27705;BME280;15109;50.992;6.918;2023-02-14T14:50:43;102494.06;;;10.79;100.00
27705;BME280;15109;50.992;6.918;2023-02-14T14:54:06;102487.88;;;10.77;100.00
27705;BME280;15109;50.992;6.918;2023-02-14T14:57:38;102491.50;;;10.77;100.00
27705;BME280;15109;50.992;6.918;2023-02-14T15:01:02;102494.50;;;10.84;100.00
27705;BME280;15109;50.992;6.918;2023-02-14T15:07:44;102488.47;;;10.80;100.00
27705;BME280;15109;50.992;6.918;2023-02-14T15:11:11;102484.00;;;10.79;100.00
27705;BME280;15109;50.992;6.918;2023-02-14T15:14:34;102478.94;;;10.75;100.00
27705;BME280;15109;50.992;6.918;2023-02-14T15:17:55;102473.59;;;10.83;100.00
27705;BME280;15109;50.992;6.918;2023-02-14T15:21:17;102473.47;;;10.75;100.00
27705;BME280;15109;50.992;6.918;2023-02-14T15:24:41;102469.47;;;10.69;100.00
27705;BME280;15109;50.992;6.918;2023-02-14T15:28:02;102486.16;;;10.66;100.00
27705;BME280;15109;50.992;6.918;2023-02-14T15:31:24;102469.31;;;10.71;100.00
27705;BME280;15109;50.992;6.918;2023-02-14T15:34:46;102461.84;;;10.73;100.00
27705;BME280;15109;50.992;6.918;2023-02-14T15:38:08;102456.94;;;10.67;100.00
27705;BME280;15109;50.992;6.918;2023-02-14T15:41:32;102464.44;;;10.55;100.00
27705;BME280;15109;50.992;6.918;2023-02-14T15:45:15;102460.25;;;10.51;100.00
27705;BME280;15109;50.992;6.918;2023-02-14T15:48:37;102474.22;;;10.38;100.00
27705;BME280;15109;50.992;6.918;2023-02-14T15:52:03;102474.50;;;10.35;100.00
27705;BME280;15109;50.992;6.918;2023-02-14T15:55:25;102472.19;;;10.31;100.00
27705;BME280;15109;50.992;6.918;2023-02-14T15:58:46;102474.63;;;10.24;100.00
27705;BME280;15109;50.992;6.918;2023-02-14T16:02:16;102472.88;;;10.23;100.00
27705;BME280;15109;50.992;6.918;2023-02-14T16:05:44;102475.72;;;10.12;100.00
27705;BME280;15109;50.992;6.918;2023-02-14T16:09:20;102481.44;;;9.99;100.00
27705;BME280;15109;50.992;6.918;2023-02-14T16:12:42;102489.47;;;10.01;100.00
27705;BME280;15109;50.992;6.918;2023-02-14T16:16:14;102487.19;;;9.96;100.00
27705;BME280;15109;50.992;6.918;2023-02-14T16:19:38;102482.69;;;9.86;100.00
27705;BME280;15109;50.992;6.918;2023-02-14T16:23:14;102485.25;;;9.78;100.00
27705;BME280;15109;50.992;6.918;2023-02-14T16:26:41;102483.34;;;9.69;100.00
27705;BME280;15109;50.992;6.918;2023-02-14T16:30:04;102482.91;;;9.64;100.00
27705;BME280;15109;50.992;6.918;2023-02-14T16:33:26;102486.72;;;9.51;100.00
27705;BME280;15109;50.992;6.918;2023-02-14T16:36:48;102490.41;;;9.41;100.00
27705;BME280;15109;50.992;6.918;2023-02-14T16:40:10;102495.56;;;9.34;100.00
27705;BME280;15109;50.992;6.918;2023-02-14T16:43:32;102500.81;;;9.26;100.00
27705;BME280;15109;50.992;6.918;2023-02-14T16:46:54;102495.78;;;9.22;100.00
27705;BME280;15109;50.992;6.918;2023-02-14T16:50:15;102493.56;;;9.16;100.00
27705;BME280;15109;50.992;6.918;2023-02-14T16:53:37;102499.31;;;9.13;100.00
27705;BME280;15109;50.992;6.918;2023-02-14T16:56:59;102501.63;;;8.96;100.00
27705;BME280;15109;50.992;6.918;2023-02-14T17:00:22;102495.22;;;8.86;100.00
27705;BME280;15109;50.992;6.918;2023-02-14T17:03:45;102499.81;;;8.86;100.00
27705;BME280;15109;50.992;6.918;2023-02-14T17:07:06;102501.28;;;8.90;100.00
27705;BME280;15109;50.992;6.918;2023-02-14T17:10:27;102500.41;;;8.89;100.00
27705;BME280;15109;50.992;6.918;2023-02-14T17:13:49;102505.28;;;8.86;100.00
27705;BME280;15109;50.992;6.918;2023-02-14T17:17:12;102497.66;;;8.80;100.00
27705;BME280;15109;50.992;6.918;2023-02-14T17:20:33;102507.91;;;8.76;100.00
27705;BME280;15109;50.992;6.918;2023-02-14T17:23:54;102505.38;;;8.63;100.00
27705;BME280;15109;50.992;6.918;2023-02-14T17:27:16;102505.06;;;8.57;100.00
27705;BME280;15109;50.992;6.918;2023-02-14T17:30:37;102513.41;;;8.44;100.00
27705;BME280;15109;50.992;6.918;2023-02-14T17:34:02;102516.16;;;8.33;100.00
27705;BME280;15109;50.992;6.918;2023-02-14T17:37:22;102517.91;;;8.23;100.00
27705;BME280;15109;50.992;6.918;2023-02-14T17:40:44;102521.88;;;8.19;100.00
27705;BME280;15109;50.992;6.918;2023-02-14T17:44:06;102518.78;;;8.12;100.00
27705;BME280;15109;50.992;6.918;2023-02-14T17:47:27;102531.03;;;8.07;100.00
27705;BME280;15109;50.992;6.918;2023-02-14T17:50:48;102534.28;;;8.01;100.00
27705;BME280;15109;50.992;6.918;2023-02-14T17:54:10;102534.53;;;7.98;100.00
27705;BME280;15109;50.992;6.918;2023-02-14T17:57:32;102527.34;;;7.86;100.00
27705;BME280;15109;50.992;6.918;2023-02-14T18:00:53;102527.97;;;7.89;100.00
27705;BME280;15109;50.992;6.918;2023-02-14T18:04:15;102529.31;;;7.95;100.00
27705;BME280;15109;50.992;6.918;2023-02-14T18:07:38;102527.50;;;7.84;100.00
27705;BME280;15109;50.992;6.918;2023-02-14T18:11:02;102529.59;;;7.81;100.00
27705;BME280;15109;50.992;6.918;2023-02-14T18:14:27;102532.53;;;7.78;100.00
27705;BME280;15109;50.992;6.918;2023-02-14T18:17:49;102532.53;;;7.78;100.00
27705;BME280;15109;50.992;6.918;2023-02-14T18:21:11;102527.72;;;7.70;100.00
27705;BME280;15109;50.992;6.918;2023-02-14T18:24:32;102520.44;;;7.70;100.00
27705;BME280;15109;50.992;6.918;2023-02-14T18:27:55;102530.56;;;7.57;100.00
27705;BME280;15109;50.992;6.918;2023-02-14T18:31:21;102520.06;;;7.53;100.00
27705;BME280;15109;50.992;6.918;2023-02-14T18:34:42;102525.75;;;7.50;100.00
27705;BME280;15109;50.992;6.918;2023-02-14T18:38:03;102514.97;;;7.37;100.00
27705;BME280;15109;50.992;6.918;2023-02-14T18:41:24;102511.63;;;7.34;100.00
27705;BME280;15109;50.992;6.918;2023-02-14T18:44:45;102514.69;;;7.18;100.00
27705;BME280;15109;50.992;6.918;2023-02-14T18:48:07;102504.31;;;7.12;100.00
27705;BME280;15109;50.992;6.918;2023-02-14T18:51:29;102510.22;;;7.06;100.00
27705;BME280;15109;50.992;6.918;2023-02-14T18:54:51;102497.72;;;7.03;100.00
27705;BME280;15109;50.992;6.918;2023-02-14T18:58:12;102502.94;;;7.06;100.00
27705;BME280;15109;50.992;6.918;2023-02-14T19:01:36;102496.38;;;6.98;100.00
27705;BME280;15109;50.992;6.918;2023-02-14T19:05:00;102500.16;;;6.84;100.00
27705;BME280;15109;50.992;6.918;2023-02-14T19:08:21;102488.03;;;6.88;100.00
27705;BME280;15109;50.992;6.918;2023-02-14T19:11:42;102493.81;;;6.72;100.00
27705;BME280;15109;50.992;6.918;2023-02-14T19:15:03;102498.50;;;6.70;100.00
27705;BME280;15109;50.992;6.918;2023-02-14T19:18:25;102493.13;;;6.58;100.00
27705;BME280;15109;50.992;6.918;2023-02-14T19:21:46;102494.88;;;6.59;100.00
27705;BME280;15109;50.992;6.918;2023-02-14T19:25:11;102479.44;;;6.59;100.00
27705;BME280;15109;50.992;6.918;2023-02-14T19:28:32;102482.50;;;6.55;100.00
27705;BME280;15109;50.992;6.918;2023-02-14T19:31:53;102481.41;;;6.57;100.00
27705;BME280;15109;50.992;6.918;2023-02-14T19:35:14;102474.22;;;6.56;100.00
27705;BME280;15109;50.992;6.918;2023-02-14T19:38:36;102477.19;;;6.53;100.00